Orovada, Nevada
Current Conditions -  °F | °C
As of 9:56 PM on Tuesday 27 Jan 2015 (Local Time) from KWMC Reporting Station
Overcast Overcast  
Wind Chill: 33°   Ceiling: 8000
Heat Index: 40°   Visibility: 10mi
Dew Point: 37°   Wind: 10mph
Humidity: 89%   Direction: 170°S
Pressure: 30.23"   Gusts: NA
Location:  41.57°N, 117.79°W
Report Text: KWMC 280556Z AUTO 17009KT 10SM FEW065 OVC080 04/03 A3023 RMK AO2 SLP237 60003 T00440028 10056 20039 53011
Loading
Personal Weather Stations






























Interactive Weather Map New forecast layout! Learn more

10-Day Weather Forecast

Advertisements
Track Severe Weather on mobile